sensor_id;sensor_type;location;lat;lon;timestamp;pressure;altitude;pressure_sealevel;temperature;humidity
49342;BME280;35210;41.606;-87.602;2023-02-19T00:01:46;99927.81;;;8.15;58.09
49342;BME280;35210;41.606;-87.602;2023-02-19T00:04:15;99926.75;;;8.04;58.31
49342;BME280;35210;41.606;-87.602;2023-02-19T00:06:46;99917.56;;;8.11;58.27
49342;BME280;35210;41.606;-87.602;2023-02-19T00:09:16;99922.91;;;8.09;58.77
49342;BME280;35210;41.606;-87.602;2023-02-19T00:11:45;99923.28;;;8.03;59.04
49342;BME280;35210;41.606;-87.602;2023-02-19T00:14:15;99917.66;;;8.09;58.68
49342;BME280;35210;41.606;-87.602;2023-02-19T00:16:43;99925.28;;;8.14;59.04
49342;BME280;35210;41.606;-87.602;2023-02-19T00:19:12;99915.47;;;8.02;59.58
49342;BME280;35210;41.606;-87.602;2023-02-19T00:21:41;99910.66;;;7.94;60.21
49342;BME280;35210;41.606;-87.602;2023-02-19T00:24:13;99901.53;;;7.85;60.59
49342;BME280;35210;41.606;-87.602;2023-02-19T00:26:42;99907.63;;;7.86;60.95
49342;BME280;35210;41.606;-87.602;2023-02-19T00:29:13;99898.53;;;7.91;60.80
49342;BME280;35210;41.606;-87.602;2023-02-19T00:31:41;99902.88;;;7.93;61.17
49342;BME280;35210;41.606;-87.602;2023-02-19T00:34:10;99890.28;;;7.68;61.67
49342;BME280;35210;41.606;-87.602;2023-02-19T00:36:40;99896.50;;;7.51;62.48
49342;BME280;35210;41.606;-87.602;2023-02-19T00:39:12;99900.84;;;7.52;62.48
49342;BME280;35210;41.606;-87.602;2023-02-19T00:41:41;99897.72;;;7.45;62.34
49342;BME280;35210;41.606;-87.602;2023-02-19T00:44:10;99893.88;;;7.51;62.51
49342;BME280;35210;41.606;-87.602;2023-02-19T00:46:40;99897.44;;;7.50;62.30
49342;BME280;35210;41.606;-87.602;2023-02-19T00:49:12;99899.19;;;7.35;61.81
49342;BME280;35210;41.606;-87.602;2023-02-19T00:51:41;99891.22;;;7.37;62.28
49342;BME280;35210;41.606;-87.602;2023-02-19T00:54:11;99890.38;;;7.36;61.54
49342;BME280;35210;41.606;-87.602;2023-02-19T00:56:40;99891.56;;;7.31;61.19
49342;BME280;35210;41.606;-87.602;2023-02-19T00:59:08;99893.09;;;7.19;61.44
49342;BME280;35210;41.606;-87.602;2023-02-19T01:01:36;99891.56;;;7.15;61.17
49342;BME280;35210;41.606;-87.602;2023-02-19T01:04:05;99900.38;;;6.98;61.94
49342;BME280;35210;41.606;-87.602;2023-02-19T01:06:33;99892.50;;;7.14;61.42
49342;BME280;35210;41.606;-87.602;2023-02-19T01:09:03;99908.53;;;7.09;61.71
49342;BME280;35210;41.606;-87.602;2023-02-19T01:11:34;99910.72;;;7.01;61.38
49342;BME280;35210;41.606;-87.602;2023-02-19T01:14:02;99913.50;;;6.98;62.09
49342;BME280;35210;41.606;-87.602;2023-02-19T01:16:32;99905.97;;;7.08;62.48
49342;BME280;35210;41.606;-87.602;2023-02-19T01:19:00;99925.88;;;6.96;62.54
49342;BME280;35210;41.606;-87.602;2023-02-19T01:21:29;99919.69;;;6.97;62.11
49342;BME280;35210;41.606;-87.602;2023-02-19T01:23:58;99913.41;;;6.68;63.41
49342;BME280;35210;41.606;-87.602;2023-02-19T01:26:28;99907.66;;;6.77;62.73
49342;BME280;35210;41.606;-87.602;2023-02-19T01:28:59;99911.59;;;6.69;63.66
49342;BME280;35210;41.606;-87.602;2023-02-19T01:31:28;99906.63;;;6.80;63.11
49342;BME280;35210;41.606;-87.602;2023-02-19T01:33:58;99911.81;;;6.66;63.45
49342;BME280;35210;41.606;-87.602;2023-02-19T01:36:27;99909.66;;;6.72;63.85
49342;BME280;35210;41.606;-87.602;2023-02-19T01:38:55;99904.78;;;6.66;64.01
49342;BME280;35210;41.606;-87.602;2023-02-19T01:41:28;99896.81;;;6.68;63.00
49342;BME280;35210;41.606;-87.602;2023-02-19T01:44:02;99897.31;;;6.58;63.37
49342;BME280;35210;41.606;-87.602;2023-02-19T01:46:33;99896.78;;;6.52;63.11
49342;BME280;35210;41.606;-87.602;2023-02-19T01:49:06;99901.66;;;6.42;64.00
49342;BME280;35210;41.606;-87.602;2023-02-19T01:51:38;99897.19;;;6.44;63.85
49342;BME280;35210;41.606;-87.602;2023-02-19T01:54:11;99902.63;;;6.24;63.98
49342;BME280;35210;41.606;-87.602;2023-02-19T01:56:42;99894.72;;;6.41;63.90
49342;BME280;35210;41.606;-87.602;2023-02-19T01:59:14;99901.75;;;6.41;63.57
49342;BME280;35210;41.606;-87.602;2023-02-19T02:01:43;99903.69;;;6.37;63.36
49342;BME280;35210;41.606;-87.602;2023-02-19T02:04:13;99907.56;;;6.30;63.53
49342;BME280;35210;41.606;-87.602;2023-02-19T02:06:48;99918.66;;;6.35;62.98
49342;BME280;35210;41.606;-87.602;2023-02-19T02:09:18;99916.13;;;6.16;63.57
49342;BME280;35210;41.606;-87.602;2023-02-19T02:12:04;99910.19;;;6.30;63.48
49342;BME280;35210;41.606;-87.602;2023-02-19T02:14:36;99923.75;;;6.38;62.94
49342;BME280;35210;41.606;-87.602;2023-02-19T02:17:10;99907.41;;;6.33;63.22
49342;BME280;35210;41.606;-87.602;2023-02-19T02:20:00;99905.53;;;6.35;62.85
49342;BME280;35210;41.606;-87.602;2023-02-19T02:22:37;99898.91;;;6.28;62.81
49342;BME280;35210;41.606;-87.602;2023-02-19T02:25:32;99897.06;;;6.30;62.58
49342;BME280;35210;41.606;-87.602;2023-02-19T02:28:21;99894.13;;;6.36;62.64
49342;BME280;35210;41.606;-87.602;2023-02-19T02:31:01;99906.50;;;6.17;62.90
49342;BME280;35210;41.606;-87.602;2023-02-19T02:33:35;99900.47;;;6.32;62.71
49342;BME280;35210;41.606;-87.602;2023-02-19T02:36:09;99897.91;;;6.31;62.57
49342;BME280;35210;41.606;-87.602;2023-02-19T02:38:42;99894.44;;;6.30;62.35
49342;BME280;35210;41.606;-87.602;2023-02-19T02:41:12;99885.97;;;6.25;62.21
49342;BME280;35210;41.606;-87.602;2023-02-19T02:43:40;99888.16;;;6.00;62.77
49342;BME280;35210;41.606;-87.602;2023-02-19T02:46:12;99879.66;;;6.12;62.87
49342;BME280;35210;41.606;-87.602;2023-02-19T02:48:45;99875.50;;;6.08;62.36
49342;BME280;35210;41.606;-87.602;2023-02-19T02:51:22;99860.78;;;6.05;62.88
49342;BME280;35210;41.606;-87.602;2023-02-19T02:53:54;99861.00;;;6.01;62.58
49342;BME280;35210;41.606;-87.602;2023-02-19T02:56:41;99854.84;;;6.02;62.56
49342;BME280;35210;41.606;-87.602;2023-02-19T02:59:11;99844.34;;;6.02;62.30
49342;BME280;35210;41.606;-87.602;2023-02-19T03:01:45;99848.69;;;5.85;62.74
49342;BME280;35210;41.606;-87.602;2023-02-19T03:04:37;99842.03;;;5.96;62.54
49342;BME280;35210;41.606;-87.602;2023-02-19T03:07:30;99837.19;;;5.88;62.98
49342;BME280;35210;41.606;-87.602;2023-02-19T03:10:02;99822.13;;;5.93;63.22
49342;BME280;35210;41.606;-87.602;2023-02-19T03:12:33;99828.88;;;5.97;63.25
49342;BME280;35210;41.606;-87.602;2023-02-19T03:15:24;99824.53;;;5.96;63.51
49342;BME280;35210;41.606;-87.602;2023-02-19T03:18:13;99824.63;;;5.94;63.39
49342;BME280;35210;41.606;-87.602;2023-02-19T03:21:01;99820.00;;;6.00;63.65
49342;BME280;35210;41.606;-87.602;2023-02-19T03:23:32;99816.03;;;5.92;63.66
49342;BME280;35210;41.606;-87.602;2023-02-19T03:26:18;99821.28;;;5.92;63.75
49342;BME280;35210;41.606;-87.602;2023-02-19T03:28:49;99819.69;;;5.88;63.74
49342;BME280;35210;41.606;-87.602;2023-02-19T03:31:37;99813.63;;;5.88;64.14
49342;BME280;35210;41.606;-87.602;2023-02-19T03:34:13;99814.47;;;5.88;63.90
49342;BME280;35210;41.606;-87.602;2023-02-19T03:36:45;99801.66;;;5.82;64.63
49342;BME280;35210;41.606;-87.602;2023-02-19T03:39:19;99793.97;;;5.79;63.72
49342;BME280;35210;41.606;-87.602;2023-02-19T03:41:54;99796.13;;;5.88;64.31
49342;BME280;35210;41.606;-87.602;2023-02-19T03:44:28;99794.13;;;5.93;63.99
49342;BME280;35210;41.606;-87.602;2023-02-19T03:47:04;99783.66;;;5.93;63.76
49342;BME280;35210;41.606;-87.602;2023-02-19T03:49:42;99787.47;;;5.86;64.11
49342;BME280;35210;41.606;-87.602;2023-02-19T03:52:17;99769.78;;;5.91;63.87
49342;BME280;35210;41.606;-87.602;2023-02-19T03:54:53;99762.41;;;5.98;63.40
49342;BME280;35210;41.606;-87.602;2023-02-19T03:57:28;99757.94;;;6.00;63.39
49342;BME280;35210;41.606;-87.602;2023-02-19T04:00:04;99769.00;;;5.89;63.53
49342;BME280;35210;41.606;-87.602;2023-02-19T04:02:40;99765.53;;;5.89;63.45
49342;BME280;35210;41.606;-87.602;2023-02-19T04:05:16;99754.25;;;5.87;63.46
49342;BME280;35210;41.606;-87.602;2023-02-19T04:07:48;99759.22;;;5.76;63.35
49342;BME280;35210;41.606;-87.602;2023-02-19T04:10:20;99761.28;;;5.86;63.22
49342;BME280;35210;41.606;-87.602;2023-02-19T04:12:53;99771.63;;;5.89;63.01
49342;BME280;35210;41.606;-87.602;2023-02-19T04:15:27;99779.16;;;5.78;62.99
49342;BME280;35210;41.606;-87.602;2023-02-19T04:17:58;99762.03;;;5.88;62.95
49342;BME280;35210;41.606;-87.602;2023-02-19T04:20:33;99758.44;;;5.91;62.84
49342;BME280;35210;41.606;-87.602;2023-02-19T04:23:04;99746.31;;;5.88;63.40
49342;BME280;35210;41.606;-87.602;2023-02-19T04:25:35;99725.34;;;5.88;63.20
49342;BME280;35210;41.606;-87.602;2023-02-19T04:28:04;99725.22;;;5.74;63.22
49342;BME280;35210;41.606;-87.602;2023-02-19T04:30:32;99716.13;;;5.81;62.79
49342;BME280;35210;41.606;-87.602;2023-02-19T04:33:01;99706.44;;;5.66;62.59
49342;BME280;35210;41.606;-87.602;2023-02-19T04:35:30;99702.66;;;5.72;63.27
49342;BME280;35210;41.606;-87.602;2023-02-19T04:37:59;99699.03;;;5.74;63.06
49342;BME280;35210;41.606;-87.602;2023-02-19T04:40:27;99714.59;;;5.77;62.89
49342;BME280;35210;41.606;-87.602;2023-02-19T04:42:56;99717.97;;;5.79;62.50
49342;BME280;35210;41.606;-87.602;2023-02-19T04:45:24;99709.94;;;5.82;62.55
49342;BME280;35210;41.606;-87.602;2023-02-19T04:47:53;99713.91;;;5.74;62.77
49342;BME280;35210;41.606;-87.602;2023-02-19T04:50:21;99718.75;;;5.81;62.25
49342;BME280;35210;41.606;-87.602;2023-02-19T04:52:51;99720.50;;;5.81;62.15
49342;BME280;35210;41.606;-87.602;2023-02-19T04:55:19;99720.06;;;5.73;63.02
49342;BME280;35210;41.606;-87.602;2023-02-19T04:57:48;99699.72;;;5.78;62.51
49342;BME280;35210;41.606;-87.602;2023-02-19T05:00:17;99691.31;;;5.71;62.02
49342;BME280;35210;41.606;-87.602;2023-02-19T05:02:45;99693.09;;;5.71;62.49
49342;BME280;35210;41.606;-87.602;2023-02-19T05:05:13;99711.69;;;5.66;62.56
49342;BME280;35210;41.606;-87.602;2023-02-19T05:07:41;99702.38;;;5.60;62.97
49342;BME280;35210;41.606;-87.602;2023-02-19T05:10:10;99701.81;;;5.71;62.73
49342;BME280;35210;41.606;-87.602;2023-02-19T05:12:38;99695.81;;;5.69;63.00
49342;BME280;35210;41.606;-87.602;2023-02-19T05:15:07;99692.41;;;5.67;62.63
49342;BME280;35210;41.606;-87.602;2023-02-19T05:17:35;99691.16;;;5.74;62.82
49342;BME280;35210;41.606;-87.602;2023-02-19T05:20:03;99702.91;;;5.67;63.19
49342;BME280;35210;41.606;-87.602;2023-02-19T05:22:31;99692.75;;;5.61;63.13
49342;BME280;35210;41.606;-87.602;2023-02-19T05:24:59;99667.06;;;5.68;62.95
49342;BME280;35210;41.606;-87.602;2023-02-19T05:27:31;99676.09;;;5.62;63.85
49342;BME280;35210;41.606;-87.602;2023-02-19T05:29:59;99663.31;;;5.56;63.85
49342;BME280;35210;41.606;-87.602;2023-02-19T05:32:27;99653.53;;;5.59;63.43
49342;BME280;35210;41.606;-87.602;2023-02-19T05:34:55;99671.94;;;5.58;63.99
49342;BME280;35210;41.606;-87.602;2023-02-19T05:37:23;99666.38;;;5.64;63.45
49342;BME280;35210;41.606;-87.602;2023-02-19T05:39:51;99678.44;;;5.51;64.22
49342;BME280;35210;41.606;-87.602;2023-02-19T05:42:20;99664.69;;;5.63;63.50
49342;BME280;35210;41.606;-87.602;2023-02-19T05:44:49;99667.72;;;5.55;63.90
49342;BME280;35210;41.606;-87.602;2023-02-19T05:47:17;99667.34;;;5.46;64.22
49342;BME280;35210;41.606;-87.602;2023-02-19T05:49:46;99660.25;;;5.48;64.62
49342;BME280;35210;41.606;-87.602;2023-02-19T05:52:14;99648.41;;;5.41;64.45
49342;BME280;35210;41.606;-87.602;2023-02-19T05:54:44;99620.53;;;5.40;64.83
49342;BME280;35210;41.606;-87.602;2023-02-19T05:57:12;99625.59;;;5.43;64.88
49342;BME280;35210;41.606;-87.602;2023-02-19T05:59:40;99611.91;;;5.38;64.15
49342;BME280;35210;41.606;-87.602;2023-02-19T06:02:10;99599.66;;;5.38;64.45
49342;BME280;35210;41.606;-87.602;2023-02-19T06:04:38;99595.72;;;5.47;64.44
49342;BME280;35210;41.606;-87.602;2023-02-19T06:07:07;99601.09;;;5.44;64.49
49342;BME280;35210;41.606;-87.602;2023-02-19T06:09:35;99601.88;;;5.46;64.45
49342;BME280;35210;41.606;-87.602;2023-02-19T06:12:04;99593.25;;;5.44;64.39
49342;BME280;35210;41.606;-87.602;2023-02-19T06:14:33;99589.09;;;5.40;65.38
49342;BME280;35210;41.606;-87.602;2023-02-19T06:17:01;99600.19;;;5.45;64.80
49342;BME280;35210;41.606;-87.602;2023-02-19T06:19:31;99608.56;;;5.51;64.59
49342;BME280;35210;41.606;-87.602;2023-02-19T06:22:00;99597.41;;;5.48;65.20
49342;BME280;35210;41.606;-87.602;2023-02-19T06:24:28;99578.13;;;5.49;64.42
49342;BME280;35210;41.606;-87.602;2023-02-19T06:26:56;99586.75;;;5.51;65.28
49342;BME280;35210;41.606;-87.602;2023-02-19T06:29:24;99577.38;;;5.47;64.96
49342;BME280;35210;41.606;-87.602;2023-02-19T06:31:52;99546.53;;;5.52;65.05
49342;BME280;35210;41.606;-87.602;2023-02-19T06:34:20;99566.97;;;5.45;64.97
49342;BME280;35210;41.606;-87.602;2023-02-19T06:36:50;99579.31;;;5.43;64.89
49342;BME280;35210;41.606;-87.602;2023-02-19T06:39:18;99590.47;;;5.47;65.39
49342;BME280;35210;41.606;-87.602;2023-02-19T06:41:46;99588.00;;;5.44;64.70
49342;BME280;35210;41.606;-87.602;2023-02-19T06:44:14;99580.16;;;5.44;65.01
49342;BME280;35210;41.606;-87.602;2023-02-19T06:46:43;99582.00;;;5.42;65.26
49342;BME280;35210;41.606;-87.602;2023-02-19T06:49:11;99584.38;;;5.46;65.11
49342;BME280;35210;41.606;-87.602;2023-02-19T06:51:40;99566.31;;;5.42;65.25
49342;BME280;35210;41.606;-87.602;2023-02-19T06:54:10;99568.44;;;5.51;65.38
49342;BME280;35210;41.606;-87.602;2023-02-19T06:56:39;99546.00;;;5.29;65.57
49342;BME280;35210;41.606;-87.602;2023-02-19T06:59:10;99561.31;;;5.53;65.23
49342;BME280;35210;41.606;-87.602;2023-02-19T07:01:39;99551.59;;;5.39;65.06
49342;BME280;35210;41.606;-87.602;2023-02-19T07:04:07;99555.66;;;5.45;64.87
49342;BME280;35210;41.606;-87.602;2023-02-19T07:06:36;99547.72;;;5.46;64.76
49342;BME280;35210;41.606;-87.602;2023-02-19T07:09:06;99548.31;;;5.51;64.47
49342;BME280;35210;41.606;-87.602;2023-02-19T07:11:38;99547.47;;;5.51;65.07
49342;BME280;35210;41.606;-87.602;2023-02-19T07:14:07;99549.75;;;5.57;64.85
49342;BME280;35210;41.606;-87.602;2023-02-19T07:16:36;99538.09;;;5.47;64.86
49342;BME280;35210;41.606;-87.602;2023-02-19T07:19:04;99531.50;;;5.55;65.05
49342;BME280;35210;41.606;-87.602;2023-02-19T07:21:32;99553.81;;;5.63;64.67
49342;BME280;35210;41.606;-87.602;2023-02-19T07:24:03;99554.50;;;5.66;64.25
49342;BME280;35210;41.606;-87.602;2023-02-19T07:26:31;99554.31;;;5.69;64.28
49342;BME280;35210;41.606;-87.602;2023-02-19T07:29:01;99537.50;;;5.73;63.89
49342;BME280;35210;41.606;-87.602;2023-02-19T07:31:29;99547.66;;;5.79;63.05
49342;BME280;35210;41.606;-87.602;2023-02-19T07:33:57;99564.06;;;5.83;63.29
49342;BME280;35210;41.606;-87.602;2023-02-19T07:36:25;99543.00;;;5.84;62.41
49342;BME280;35210;41.606;-87.602;2023-02-19T07:38:54;99521.88;;;5.87;62.67
49342;BME280;35210;41.606;-87.602;2023-02-19T07:41:22;99530.13;;;5.96;62.03
49342;BME280;35210;41.606;-87.602;2023-02-19T07:43:53;99527.19;;;6.02;61.96
49342;BME280;35210;41.606;-87.602;2023-02-19T07:46:23;99545.88;;;5.96;61.84
49342;BME280;35210;41.606;-87.602;2023-02-19T07:48:51;99550.09;;;5.98;62.20
49342;BME280;35210;41.606;-87.602;2023-02-19T07:51:20;99542.16;;;6.00;61.66
49342;BME280;35210;41.606;-87.602;2023-02-19T07:53:49;99528.28;;;5.98;62.08
49342;BME280;35210;41.606;-87.602;2023-02-19T07:56:18;99524.19;;;6.08;61.33
49342;BME280;35210;41.606;-87.602;2023-02-19T07:58:48;99507.63;;;6.07;61.23
49342;BME280;35210;41.606;-87.602;2023-02-19T08:01:18;99513.38;;;6.14;61.48
49342;BME280;35210;41.606;-87.602;2023-02-19T08:04:12;99506.66;;;5.94;62.19
49342;BME280;35210;41.606;-87.602;2023-02-19T08:06:39;99497.59;;;6.00;61.81
49342;BME280;35210;41.606;-87.602;2023-02-19T08:09:08;99505.06;;;5.91;62.26
49342;BME280;35210;41.606;-87.602;2023-02-19T08:11:36;99502.91;;;5.98;62.00
49342;BME280;35210;41.606;-87.602;2023-02-19T08:14:23;99499.69;;;6.09;61.86
49342;BME280;35210;41.606;-87.602;2023-02-19T08:16:52;99485.47;;;6.13;61.76
49342;BME280;35210;41.606;-87.602;2023-02-19T08:19:22;99490.69;;;6.13;61.17
49342;BME280;35210;41.606;-87.602;2023-02-19T08:21:50;99498.78;;;6.24;61.01
49342;BME280;35210;41.606;-87.602;2023-02-19T08:24:18;99487.38;;;6.25;61.14
49342;BME280;35210;41.606;-87.602;2023-02-19T08:26:46;99465.63;;;6.23;61.35
49342;BME280;35210;41.606;-87.602;2023-02-19T08:29:14;99470.13;;;6.21;61.49
49342;BME280;35210;41.606;-87.602;2023-02-19T08:31:43;99459.16;;;6.14;61.54
49342;BME280;35210;41.606;-87.602;2023-02-19T08:34:12;99438.09;;;6.16;61.44
49342;BME280;35210;41.606;-87.602;2023-02-19T08:36:42;99394.66;;;6.26;61.37
49342;BME280;35210;41.606;-87.602;2023-02-19T08:39:10;99382.88;;;6.33;61.02
49342;BME280;35210;41.606;-87.602;2023-02-19T08:41:38;99379.31;;;6.34;61.28
49342;BME280;35210;41.606;-87.602;2023-02-19T08:44:06;99355.41;;;6.24;61.27
49342;BME280;35210;41.606;-87.602;2023-02-19T08:46:34;99452.13;;;6.15;61.89
49342;BME280;35210;41.606;-87.602;2023-02-19T08:49:02;99395.31;;;6.15;61.87
49342;BME280;35210;41.606;-87.602;2023-02-19T08:51:30;99409.44;;;6.13;61.85
49342;BME280;35210;41.606;-87.602;2023-02-19T08:54:01;99404.34;;;5.96;62.28
49342;BME280;35210;41.606;-87.602;2023-02-19T08:56:29;99421.84;;;5.95;62.80
49342;BME280;35210;41.606;-87.602;2023-02-19T08:58:57;99381.81;;;5.93;63.32
49342;BME280;35210;41.606;-87.602;2023-02-19T09:01:25;99393.13;;;5.93;63.87
49342;BME280;35210;41.606;-87.602;2023-02-19T09:03:53;99369.16;;;6.00;63.13
49342;BME280;35210;41.606;-87.602;2023-02-19T09:06:21;99387.22;;;5.90;64.01
49342;BME280;35210;41.606;-87.602;2023-02-19T09:08:49;99371.91;;;5.82;64.21
49342;BME280;35210;41.606;-87.602;2023-02-19T09:11:19;99358.78;;;5.68;64.51
49342;BME280;35210;41.606;-87.602;2023-02-19T09:13:47;99359.56;;;5.84;64.02
49342;BME280;35210;41.606;-87.602;2023-02-19T09:16:15;99364.78;;;5.70;64.77
49342;BME280;35210;41.606;-87.602;2023-02-19T09:18:43;99362.78;;;5.89;63.89
49342;BME280;35210;41.606;-87.602;2023-02-19T09:21:12;99342.81;;;5.87;63.49
49342;BME280;35210;41.606;-87.602;2023-02-19T09:23:40;99345.44;;;5.87;63.95
49342;BME280;35210;41.606;-87.602;2023-02-19T09:26:09;99341.56;;;5.94;63.70
49342;BME280;35210;41.606;-87.602;2023-02-19T09:28:40;99333.88;;;5.91;63.62
49342;BME280;35210;41.606;-87.602;2023-02-19T09:31:10;99338.28;;;5.90;63.75
49342;BME280;35210;41.606;-87.602;2023-02-19T09:33:41;99334.63;;;5.93;63.89
49342;BME280;35210;41.606;-87.602;2023-02-19T09:36:10;99319.16;;;6.03;63.72
49342;BME280;35210;41.606;-87.602;2023-02-19T09:38:38;99315.97;;;5.98;62.91
49342;BME280;35210;41.606;-87.602;2023-02-19T09:41:08;99310.66;;;5.99;63.59
49342;BME280;35210;41.606;-87.602;2023-02-19T09:43:43;99286.00;;;5.87;63.90
49342;BME280;35210;41.606;-87.602;2023-02-19T09:46:21;99286.31;;;5.97;63.53
49342;BME280;35210;41.606;-87.602;2023-02-19T09:48:52;99281.16;;;5.96;63.23
49342;BME280;35210;41.606;-87.602;2023-02-19T09:51:26;99280.69;;;6.03;63.41
49342;BME280;35210;41.606;-87.602;2023-02-19T09:53:57;99278.44;;;5.97;63.33
49342;BME280;35210;41.606;-87.602;2023-02-19T09:56:25;99270.50;;;5.99;63.31
49342;BME280;35210;41.606;-87.602;2023-02-19T09:58:57;99266.28;;;5.96;63.71
49342;BME280;35210;41.606;-87.602;2023-02-19T10:01:29;99265.34;;;5.97;63.39
49342;BME280;35210;41.606;-87.602;2023-02-19T10:04:00;99256.00;;;5.93;63.89
49342;BME280;35210;41.606;-87.602;2023-02-19T10:06:28;99255.16;;;5.92;63.83
49342;BME280;35210;41.606;-87.602;2023-02-19T10:09:12;99254.94;;;5.96;63.84
49342;BME280;35210;41.606;-87.602;2023-02-19T10:11:41;99253.38;;;5.93;63.78
49342;BME280;35210;41.606;-87.602;2023-02-19T10:14:15;99250.16;;;5.88;64.09
49342;BME280;35210;41.606;-87.602;2023-02-19T10:16:45;99254.84;;;5.97;63.59
49342;BME280;35210;41.606;-87.602;2023-02-19T10:19:15;99245.41;;;5.94;64.10
49342;BME280;35210;41.606;-87.602;2023-02-19T10:21:43;99240.38;;;5.91;63.91
49342;BME280;35210;41.606;-87.602;2023-02-19T10:24:20;99242.78;;;5.80;64.45
49342;BME280;35210;41.606;-87.602;2023-02-19T10:26:49;99245.13;;;5.85;64.50
49342;BME280;35210;41.606;-87.602;2023-02-19T10:29:19;99229.50;;;5.83;64.44
49342;BME280;35210;41.606;-87.602;2023-02-19T10:32:16;99221.81;;;5.80;64.88
49342;BME280;35210;41.606;-87.602;2023-02-19T10:35:07;99221.44;;;5.86;64.52
49342;BME280;35210;41.606;-87.602;2023-02-19T10:37:41;99221.63;;;5.83;64.65
49342;BME280;35210;41.606;-87.602;2023-02-19T10:40:18;99223.88;;;5.75;64.70
49342;BME280;35210;41.606;-87.602;2023-02-19T10:42:48;99232.28;;;5.80;65.25
49342;BME280;35210;41.606;-87.602;2023-02-19T10:45:20;99232.66;;;5.74;65.57
49342;BME280;35210;41.606;-87.602;2023-02-19T10:47:49;99220.59;;;5.72;65.29
49342;BME280;35210;41.606;-87.602;2023-02-19T10:50:25;99222.56;;;5.68;65.65
49342;BME280;35210;41.606;-87.602;2023-02-19T10:52:57;99208.34;;;5.72;65.42
49342;BME280;35210;41.606;-87.602;2023-02-19T10:55:29;99218.63;;;5.75;65.57
49342;BME280;35210;41.606;-87.602;2023-02-19T10:58:18;99215.06;;;5.76;65.00
49342;BME280;35210;41.606;-87.602;2023-02-19T11:01:10;99215.06;;;5.76;65.82
49342;BME280;35210;41.606;-87.602;2023-02-19T11:03:39;99226.56;;;5.74;65.91
49342;BME280;35210;41.606;-87.602;2023-02-19T11:06:08;99222.38;;;5.71;65.51
49342;BME280;35210;41.606;-87.602;2023-02-19T11:08:49;99232.75;;;5.73;65.94
49342;BME280;35210;41.606;-87.602;2023-02-19T11:11:25;99225.53;;;5.62;66.49
49342;BME280;35210;41.606;-87.602;2023-02-19T11:13:56;99230.22;;;5.57;66.74
49342;BME280;35210;41.606;-87.602;2023-02-19T11:16:37;99215.81;;;5.64;66.91
49342;BME280;35210;41.606;-87.602;2023-02-19T11:19:22;99210.38;;;5.67;66.86
49342;BME280;35210;41.606;-87.602;2023-02-19T11:21:51;99207.19;;;5.62;67.33
49342;BME280;35210;41.606;-87.602;2023-02-19T11:24:25;99194.84;;;5.50;67.68
49342;BME280;35210;41.606;-87.602;2023-02-19T11:26:56;99194.84;;;5.64;67.29
49342;BME280;35210;41.606;-87.602;2023-02-19T11:29:25;99205.25;;;5.66;67.55
49342;BME280;35210;41.606;-87.602;2023-02-19T11:32:21;99210.38;;;5.67;67.76
49342;BME280;35210;41.606;-87.602;2023-02-19T11:34:51;99204.56;;;5.48;67.95
49342;BME280;35210;41.606;-87.602;2023-02-19T11:37:20;99198.50;;;5.61;68.30
49342;BME280;35210;41.606;-87.602;2023-02-19T11:39:49;99188.97;;;5.60;68.48
49342;BME280;35210;41.606;-87.602;2023-02-19T11:42:35;99186.91;;;5.66;67.83
49342;BME280;35210;41.606;-87.602;2023-02-19T11:45:16;99181.84;;;5.63;68.24
49342;BME280;35210;41.606;-87.602;2023-02-19T11:48:07;99185.59;;;5.58;68.46
49342;BME280;35210;41.606;-87.602;2023-02-19T11:50:48;99191.59;;;5.60;68.64
49342;BME280;35210;41.606;-87.602;2023-02-19T11:53:24;99188.78;;;5.64;68.33
49342;BME280;35210;41.606;-87.602;2023-02-19T11:56:10;99180.81;;;5.51;69.33
49342;BME280;35210;41.606;-87.602;2023-02-19T11:58:54;99195.50;;;5.68;69.25
49342;BME280;35210;41.606;-87.602;2023-02-19T12:08:03;99186.72;;;5.69;68.93
49342;BME280;35210;41.606;-87.602;2023-02-19T12:10:48;99191.03;;;5.70;69.48
49342;BME280;35210;41.606;-87.602;2023-02-19T12:13:26;99190.84;;;5.73;69.00
49342;BME280;35210;41.606;-87.602;2023-02-19T12:16:10;99191.13;;;5.68;69.22
49342;BME280;35210;41.606;-87.602;2023-02-19T12:18:54;99183.53;;;5.64;69.79
49342;BME280;35210;41.606;-87.602;2023-02-19T12:21:45;99183.34;;;5.67;69.58
49342;BME280;35210;41.606;-87.602;2023-02-19T12:27:20;99172.59;;;5.57;70.05
49342;BME280;35210;41.606;-87.602;2023-02-19T12:30:07;99171.09;;;5.67;70.04
49342;BME280;35210;41.606;-87.602;2023-02-19T12:35:52;99167.44;;;5.70;70.16
49342;BME280;35210;41.606;-87.602;2023-02-19T12:38:30;99178.31;;;5.78;69.79
49342;BME280;35210;41.606;-87.602;2023-02-19T12:41:17;99173.91;;;5.78;69.60
49342;BME280;35210;41.606;-87.602;2023-02-19T12:43:52;99171.09;;;5.81;69.58
49342;BME280;35210;41.606;-87.602;2023-02-19T12:46:28;99167.25;;;5.73;70.26
49342;BME280;35210;41.606;-87.602;2023-02-19T12:49:06;99155.47;;;5.80;69.66
49342;BME280;35210;41.606;-87.602;2023-02-19T12:51:41;99162.69;;;5.76;70.29
49342;BME280;35210;41.606;-87.602;2023-02-19T12:54:16;99165.94;;;5.66;69.87
49342;BME280;35210;41.606;-87.602;2023-02-19T12:56:51;99157.25;;;5.79;70.46
49342;BME280;35210;41.606;-87.602;2023-02-19T12:59:25;99156.13;;;5.69;69.91
49342;BME280;35210;41.606;-87.602;2023-02-19T13:01:59;99163.69;;;5.59;70.48
49342;BME280;35210;41.606;-87.602;2023-02-19T13:04:35;99155.09;;;5.72;70.85
49342;BME280;35210;41.606;-87.602;2023-02-19T13:07:09;99153.31;;;5.72;70.28
49342;BME280;35210;41.606;-87.602;2023-02-19T13:09:47;99157.63;;;5.73;70.58
49342;BME280;35210;41.606;-87.602;2023-02-19T13:12:22;99156.13;;;5.83;69.85
49342;BME280;35210;41.606;-87.602;2023-02-19T13:14:55;99154.34;;;5.84;69.89
49342;BME280;35210;41.606;-87.602;2023-02-19T13:17:28;99154.84;;;5.90;70.17
49342;BME280;35210;41.606;-87.602;2023-02-19T13:20:06;99144.03;;;5.95;70.03
49342;BME280;35210;41.606;-87.602;2023-02-19T13:22:44;99144.25;;;5.92;69.77
49342;BME280;35210;41.606;-87.602;2023-02-19T13:25:43;99145.44;;;6.01;69.87
49342;BME280;35210;41.606;-87.602;2023-02-19T13:28:29;99143.94;;;5.97;69.36
49342;BME280;35210;41.606;-87.602;2023-02-19T13:31:13;99152.75;;;5.96;69.62